^^
Meteo Knjazevac Station Historical Data
Daily Summary for May 16, 2022 Units:  English    Metric   Both
Daily Weekly Monthly Yearly Custom
  High: Low: Average:
Temperature: 60.4 °F 36.7 °F 50.7 °F
Dew Point: 53.2 °F 36.4 °F 48.1 °F
Humidity: 99% 74.9% 92%
Wind Speed: 12.9mph 0mph 4.2mph
Wind Gust: 15mph - -
Wind- - SW
Pressure: 30.01 in 29.73 in -
Precipitation: 0.02 in    
Historical Graphs
 
 
Tabular Data for May 16, 2022
Time Temperature Dew Point Pressure Wind Wind Speed Wind Gust Humidity Rainfall Rate (Hourly) solar Conditions
00:04 43.1 °F 42.8 °F 30.01 in West 2.1 mph 2 mph 99% 0.00 in 0 W/m2
00:09 43 °F 42.7 °F 30.01 in WSW 2.2 mph 2 mph 99% 0.00 in 0 W/m2
00:14 42.9 °F 42.6 °F 30.01 in WSW 2.2 mph 2 mph 99% 0.00 in 0 W/m2
00:19 42.9 °F 42.6 °F 30.01 in WSW 1.9 mph 2 mph 99% 0.00 in 0 W/m2
00:24 42.8 °F 42.5 °F 30.01 in West 2.2 mph 2 mph 99% 0.00 in 0 W/m2
00:29 42.8 °F 42.5 °F 30.01 in West 2.2 mph 2 mph 99% 0.00 in 0 W/m2
00:34 42.8 °F 42.5 °F 30.01 in SW 3.1 mph 3 mph 99% 0.00 in 0 W/m2
00:39 42.7 °F 42.4 °F 30.00 in SSW 3 mph 3 mph 99% 0.00 in 0 W/m2
00:44 42.6 °F 42.4 °F 30.00 in SSW 2.8 mph 3 mph 99% 0.00 in 0 W/m2
00:49 42.4 °F 42.2 °F 30.00 in SSW 2.9 mph 3 mph 99% 0.00 in 0 W/m2
00:54 42.4 °F 42.2 °F 30.00 in SSW 2.8 mph 3 mph 99% 0.00 in 0 W/m2
00:59 42.4 °F 42.2 °F 30.00 in SW 1.9 mph 3 mph 99% 0.00 in 0 W/m2
01:04 42.4 °F 42.2 °F 30.00 in SW 2.1 mph 2 mph 99% 0.00 in 0 W/m2
01:09 42.3 °F 42 °F 29.99 in ENE 2 mph 2 mph 99% 0.00 in 0 W/m2
01:14 42.3 °F 42 °F 29.99 in ESE 2.2 mph 2 mph 99% 0.00 in 0 W/m2
01:19 42.1 °F 41.8 °F 29.99 in SE 2.7 mph 2.2 mph 99% 0.00 in 0 W/m2
01:24 42.1 °F 41.8 °F 29.99 in SE 2.3 mph 3 mph 99% 0.00 in 0 W/m2
01:29 42.1 °F 41.8 °F 29.99 in South 1.9 mph 3 mph 99% 0.00 in 0 W/m2
01:34 42.1 °F 41.8 °F 29.99 in WNW 1.4 mph 2 mph 99% 0.00 in 0 W/m2
01:39 42.1 °F 41.8 °F 29.99 in NW 1.4 mph 2 mph 99% 0.00 in 0 W/m2
01:44 42.1 °F 41.8 °F 29.99 in NW 1.9 mph 1.1 mph 99% 0.00 in 0 W/m2
01:49 41.9 °F 41.6 °F 29.99 in NNW 0.6 mph 2 mph 99% 0.00 in 0 W/m2
01:54 41.9 °F 41.6 °F 29.99 in NNW 0.5 mph 1 mph 99% 0.00 in 0 W/m2
01:59 41.9 °F 41.6 °F 29.99 in NNW 2 mph 1.8 mph 99% 0.00 in 0 W/m2
02:04 41.8 °F 41.6 °F 29.99 in WNW 2.6 mph 3 mph 99% 0.00 in 0 W/m2
02:09 41.6 °F 41.4 °F 29.99 in SSW 3 mph 3 mph 99% 0.00 in 0 W/m2
02:14 41.4 °F 41.2 °F 29.99 in SSW 2.3 mph 3 mph 99% 0.00 in 0 W/m2
02:19 41.4 °F 41.1 °F 29.98 in South 2.1 mph 3 mph 99% 0.00 in 0 W/m2
02:24 41.2 °F 40.9 °F 29.98 in SSE 2.5 mph 4 mph 99% 0.00 in 0 W/m2
02:29 41.2 °F 40.9 °F 29.98 in SSE 2.2 mph 3 mph 99% 0.00 in 0 W/m2
02:34 41 °F 40.7 °F 29.98 in SSW 2.4 mph 2 mph 99% 0.00 in 0 W/m2
02:39 40.9 °F 40.6 °F 29.98 in SSW 2.6 mph 3 mph 99% 0.00 in 0 W/m2
02:44 40.8 °F 40.6 °F 29.98 in WSW 1.8 mph 3 mph 99% 0.00 in 0 W/m2
02:49 40.8 °F 40.6 °F 29.97 in WNW 1.9 mph 2 mph 99% 0.00 in 0 W/m2
02:54 40.7 °F 40.5 °F 29.97 in WNW 1.9 mph 3 mph 99% 0.00 in 0 W/m2
02:59 40.6 °F 40.4 °F 29.97 in West 1.7 mph 2 mph 99% 0.00 in 0 W/m2
03:04 40.5 °F 40.2 °F 29.97 in West 2.5 mph 2.2 mph 99% 0.00 in 0 W/m2
03:09 40.2 °F 39.9 °F 29.97 in SSW 2.1 mph 3 mph 99% 0.00 in 0 W/m2
03:14 39.9 °F 39.7 °F 29.97 in SSE 1.7 mph 2 mph 99% 0.00 in 0 W/m2
03:19 39.9 °F 39.7 °F 29.97 in East 1.5 mph 2 mph 99% 0.00 in 0 W/m2
03:24 39.8 °F 39.6 °F 29.96 in NW 2.5 mph 2.2 mph 99% 0.00 in 0 W/m2
03:29 39.7 °F 39.4 °F 29.96 in West 2.3 mph 3 mph 99% 0.00 in 0 W/m2
03:34 39.6 °F 39.3 °F 29.96 in West 2 mph 2 mph 99% 0.00 in 0 W/m2
03:39 39.6 °F 39.3 °F 29.96 in WSW 2.5 mph 2 mph 99% 0.00 in 0 W/m2
03:44 39.5 °F 39.2 °F 29.96 in West 2.8 mph 3 mph 99% 0.00 in 0 W/m2
03:49 39.4 °F 39.1 °F 29.96 in West 2.1 mph 3 mph 99% 0.00 in 0 W/m2
03:54 39.4 °F 39.1 °F 29.95 in WSW 2.3 mph 3 mph 99% 0.00 in 0 W/m2
03:59 39.4 °F 39.1 °F 29.95 in WSW 3.4 mph 3 mph 99% 0.00 in 0 W/m2
04:04 39.4 °F 39.1 °F 29.95 in West 4.2 mph 4 mph 99% 0.00 in 0 W/m2
04:09 39.4 °F 39.1 °F 29.95 in West 4.1 mph 5 mph 99% 0.00 in 0 W/m2
04:14 39.2 °F 38.9 °F 29.95 in West 4.2 mph 5 mph 99% 0.00 in 0 W/m2
04:19 39.1 °F 38.8 °F 29.95 in West 3.9 mph 5 mph 99% 0.00 in 0 W/m2
04:24 39 °F 38.8 °F 29.95 in West 3.4 mph 5 mph 99% 0.00 in 0 W/m2
04:29 39 °F 38.8 °F 29.95 in WSW 3.4 mph 4 mph 99% 0.00 in 0 W/m2
04:34 38.8 °F 38.6 °F 29.95 in West 4.1 mph 4.5 mph 99% 0.00 in 0 W/m2
04:39 38.7 °F 38.5 °F 29.95 in West 4.7 mph 6 mph 99% 0.00 in 0 W/m2
04:44 38.7 °F 38.4 °F 29.94 in WNW 5 mph 6 mph 99% 0.00 in 0 W/m2
04:49 38.5 °F 38.2 °F 29.94 in WNW 3.6 mph 6 mph 99% 0.00 in 0 W/m2
04:54 38.3 °F 38 °F 29.94 in WNW 3.1 mph 4 mph 99% 0.00 in 0 W/m2
04:59 38.1 °F 37.9 °F 29.94 in NW 2.8 mph 3 mph 99% 0.00 in 0 W/m2
05:04 37.9 °F 37.7 °F 29.94 in WNW 2.8 mph 3 mph 99% 0.00 in 0 W/m2
05:09 37.8 °F 37.5 °F 29.94 in NW 3.4 mph 4 mph 99% 0.00 in 0 W/m2
05:14 37.6 °F 37.3 °F 29.94 in NW 3.1 mph 3 mph 99% 0.00 in 0 W/m2
05:19 37.4 °F 37.1 °F 29.94 in NW 3 mph 3 mph 99% 0.00 in 0 W/m2
05:24 37.3 °F 37.1 °F 29.94 in NW 3 mph 4 mph 99% 0.00 in 0 W/m2
05:29 37.2 °F 37 °F 29.94 in NNW 4.2 mph 4 mph 99% 0.00 in 0 W/m2
05:34 37.2 °F 37 °F 29.94 in NNW 3.3 mph 5 mph 99% 0.00 in 0 W/m2
05:39 37.1 °F 36.9 °F 29.94 in NW 3 mph 4 mph 99% 0.00 in 0 W/m2
05:44 37 °F 36.8 °F 29.94 in NNW 3.2 mph 3 mph 99% 0.00 in 0 W/m2
05:49 37 °F 36.8 °F 29.93 in North 2.7 mph 4 mph 99% 0.00 in 0 W/m2
05:54 37 °F 36.7 °F 29.93 in NNW 3.4 mph 3 mph 99% 0.00 in 0 W/m2
05:59 36.9 °F 36.6 °F 29.93 in NW 3.4 mph 4 mph 99% 0.00 in 0 W/m2
06:04 37 °F 36.8 °F 29.93 in NW 3.1 mph 4 mph 99% 0.00 in 0 W/m2
06:09 37.2 °F 37 °F 29.93 in NW 3.3 mph 4 mph 99% 0.00 in 0 W/m2
06:14 37.2 °F 37 °F 29.93 in NNW 2.8 mph 3 mph 99% 0.00 in 0 W/m2
06:19 37.1 °F 36.9 °F 29.93 in NW 2.6 mph 3 mph 99% 0.00 in 1 W/m2
06:24 36.9 °F 36.6 °F 29.93 in WNW 2.7 mph 3 mph 99% 0.00 in 3 W/m2
06:29 36.7 °F 36.4 °F 29.93 in West 2 mph 3 mph 99% 0.00 in 7 W/m2
06:34 36.7 °F 36.4 °F 29.93 in WNW 3.3 mph 4 mph 99% 0.00 in 10 W/m2
06:39 36.9 °F 36.6 °F 29.93 in NW 2.3 mph 4 mph 99% 0.00 in 13 W/m2
06:44 37.1 °F 36.9 °F 29.93 in NW 2 mph 3 mph 99% 0.00 in 18 W/m2
06:49 37.8 °F 37.6 °F 29.93 in NNW 0.4 mph 2 mph 99% 0.00 in 25 W/m2
06:54 38.1 °F 37.9 °F 29.93 in North 1.6 mph 1.1 mph 99% 0.00 in 31 W/m2
06:59 38.1 °F 37.9 °F 29.93 in NNW 2.1 mph 3 mph 99% 0.00 in 41 W/m2
07:04 38.3 °F 38 °F 29.93 in North 1.2 mph 3 mph 99% 0.00 in 50 W/m2
07:09 38.7 °F 38.5 °F 29.93 in NNE 1.8 mph 2 mph 99% 0.00 in 60 W/m2
07:14 39 °F 38.8 °F 29.93 in NNW 3 mph 2.2 mph 99% 0.00 in 71 W/m2
07:19 39 °F 38.8 °F 29.93 in NNW 3.5 mph 4 mph 99% 0.00 in 91 W/m2
07:24 39.1 °F 38.9 °F 29.93 in NW 3.6 mph 5 mph 99% 0.00 in 109 W/m2
07:29 39.7 °F 39.5 °F 29.93 in WNW 2.2 mph 5 mph 99% 0.00 in 128 W/m2
07:34 40.6 °F 40.4 °F 29.93 in NW 2.6 mph 2 mph 99% 0.00 in 138 W/m2
07:39 41.5 °F 41.3 °F 29.93 in NNW 2.4 mph 3 mph 99% 0.00 in 151 W/m2
07:44 42.4 °F 42.1 °F 29.93 in NW 2 mph 3 mph 99% 0.00 in 169 W/m2
07:49 43.5 °F 43.2 °F 29.92 in WNW 1.9 mph 2 mph 99% 0.00 in 187 W/m2
07:54 44.3 °F 44 °F 29.92 in NW 0.7 mph 2 mph 99% 0.00 in 202 W/m2
07:59 44.9 °F 44.6 °F 29.92 in NW 1.5 mph 1.3 mph 99% 0.00 in 207 W/m2
08:04 45.5 °F 45.2 °F 29.92 in West 1.2 mph 2 mph 99% 0.00 in 207 W/m2
08:09 46 °F 45.8 °F 29.92 in WSW 1.3 mph 2 mph 99% 0.00 in 160 W/m2
08:14 46.6 °F 46.4 °F 29.92 in West 1.3 mph 2 mph 99% 0.00 in 200 W/m2
08:19 47.3 °F 47.1 °F 29.92 in WSW 1.5 mph 2 mph 99% 0.00 in 235 W/m2
08:24 47.8 °F 47.6 °F 29.91 in SSW 1.9 mph 2 mph 99% 0.00 in 266 W/m2
08:29 48.5 °F 48.3 °F 29.91 in SW 2 mph 2 mph 99% 0.00 in 275 W/m2
08:34 49.5 °F 49.2 °F 29.91 in West 1.8 mph 2 mph 99% 0.00 in 282 W/m2
08:39 50.3 °F 49.8 °F 29.91 in WSW 2.6 mph 2 mph 98.2% 0.00 in 287 W/m2
08:44 50.8 °F 50.1 °F 29.91 in SSW 2.2 mph 3 mph 97.4% 0.00 in 302 W/m2
08:49 51.4 °F 50.2 °F 29.91 in SSW 3.2 mph 2.9 mph 95.7% 0.00 in 325 W/m2
08:54 51.9 °F 50.5 °F 29.91 in SSW 4.1 mph 5 mph 95% 0.00 in 376 W/m2
08:59 53 °F 51.6 °F 29.91 in SSW 3.5 mph 5 mph 94.9% 0.00 in 370 W/m2
09:04 54.4 °F 52.5 °F 29.91 in SW 4.3 mph 5 mph 93.3% 0.00 in 366 W/m2
09:09 55.4 °F 52.8 °F 29.91 in SW 4.3 mph 5 mph 90.7% 0.00 in 359 W/m2
09:14 56 °F 53.1 °F 29.91 in SSW 4.2 mph 5 mph 89.9% 0.00 in 368 W/m2
09:19 56.7 °F 53.2 °F 29.90 in SW 5 mph 5 mph 88.3% 0.00 in 391 W/m2
09:24 57.3 °F 53.2 °F 29.90 in SW 4.7 mph 6 mph 86.2% 0.00 in 423 W/m2
09:29 57.7 °F 53.1 °F 29.90 in WSW 6 mph 5.1 mph 84.5% 0.00 in 327 W/m2
09:34 57.6 °F 52.8 °F 29.90 in WSW 6.2 mph 7 mph 84% 0.00 in 284 W/m2
09:39 57.4 °F 52.5 °F 29.90 in SW 7.1 mph 7 mph 83.7% 0.00 in 301 W/m2
09:44 57.3 °F 52.4 °F 29.90 in SW 7.2 mph 8 mph 83.5% 0.00 in 206 W/m2
09:49 57.2 °F 52.1 °F 29.90 in SW 8 mph 10 mph 83.1% 0.00 in 166 W/m2
09:54 57.2 °F 52.2 °F 29.90 in SW 4 mph 10 mph 83.6% 0.00 in 130 W/m2
09:59 57 °F 52.2 °F 29.90 in WSW 4.1 mph 6 mph 83.8% 0.00 in 96 W/m2
10:04 56.9 °F 52.1 °F 29.90 in WSW 3.1 mph 6 mph 84% 0.00 in 73 W/m2
10:09 56.8 °F 52.1 °F 29.90 in WSW 2.9 mph 3 mph 84% 0.00 in 59 W/m2
10:14 56.8 °F 52.1 °F 29.90 in WSW 4.2 mph 5 mph 84% 0.00 in 76 W/m2
10:19 56.7 °F 51.8 °F 29.89 in SW 4.9 mph 5 mph 83.6% 0.00 in 118 W/m2
10:24 56.8 °F 51.4 °F 29.89 in SW 6.4 mph 8 mph 82.1% 0.00 in 118 W/m2
10:29 56.8 °F 51.2 °F 29.89 in South 6.6 mph 8 mph 81.2% 0.00 in 97 W/m2
10:34 57 °F 51.8 °F 29.88 in SSW 3.4 mph 7 mph 82.9% 0.00 in 104 W/m2
10:39 57 °F 51.9 °F 29.88 in SW 4.9 mph 6 mph 83% 0.00 in 104 W/m2
10:44 57 °F 51.4 °F 29.88 in SSW 5.9 mph 7 mph 81.4% 0.00 in 115 W/m2
10:49 57.2 °F 51.4 °F 29.88 in SSW 5.2 mph 7 mph 81% 0.00 in 154 W/m2
10:54 57.4 °F 51.6 °F 29.88 in SSW 6.4 mph 7 mph 81% 0.00 in 180 W/m2
10:59 57.6 °F 51.8 °F 29.87 in SW 5.6 mph 10 mph 81% 0.00 in 187 W/m2
11:04 57.7 °F 51.8 °F 29.87 in SW 7.9 mph 7 mph 80.5% 0.00 in 204 W/m2
11:09 57.9 °F 51.8 °F 29.87 in SW 8.6 mph 10 mph 80% 0.00 in 171 W/m2
11:14 58.1 °F 51.9 °F 29.86 in SSW 9.2 mph 12 mph 79.8% 0.00 in 160 W/m2
11:19 58.3 °F 52 °F 29.86 in SW 10.7 mph 12 mph 79.8% 0.00 in 151 W/m2
11:24 58.3 °F 52.1 °F 29.86 in SW 6.5 mph 12 mph 80% 0.00 in 153 W/m2
11:29 58.4 °F 52 °F 29.86 in SW 9.8 mph 8 mph 79.4% 0.00 in 227 W/m2
11:34 58.6 °F 52.1 °F 29.86 in SW 10.4 mph 13 mph 79% 0.00 in 281 W/m2
11:39 58.9 °F 52.4 °F 29.86 in SW 8.4 mph 14 mph 78.8% 0.00 in 322 W/m2
11:44 59.3 °F 52.5 °F 29.86 in SW 11.4 mph 11 mph 78.2% 0.00 in 263 W/m2
11:49 59.4 °F 52.1 °F 29.85 in SW 12.9 mph 14 mph 77.1% 0.00 in 193 W/m2
11:54 59.4 °F 52.1 °F 29.85 in SW 12.3 mph 15 mph 77.1% 0.00 in 158 W/m2
11:59 59.4 °F 52.3 °F 29.85 in SW 10.7 mph 15 mph 77.4% 0.00 in 206 W/m2
12:04 59.5 °F 52.3 °F 29.84 in SW 11 mph 14 mph 77% 0.00 in 212 W/m2
12:09 59.5 °F 52.3 °F 29.84 in SW 11.7 mph 13 mph 77% 0.00 in 175 W/m2
12:14 59.5 °F 52.3 °F 29.84 in SW 9.3 mph 13 mph 77% 0.00 in 125 W/m2
12:19 59.6 °F 52.4 °F 29.83 in SW 9.9 mph 13 mph 77% 0.00 in 127 W/m2
12:24 59.6 °F 52.4 °F 29.83 in SSW 12.4 mph 10 mph 77% 0.00 in 112 W/m2
12:29 59.5 °F 52.3 °F 29.83 in SSW 8.4 mph 14 mph 77% 0.00 in 86 W/m2
12:34 59.5 °F 52.3 °F 29.83 in SW 7.7 mph 10 mph 77% 0.00 in 76 W/m2
12:39 59.5 °F 52.4 °F 29.83 in SW 6.8 mph 12 mph 77.3% 0.00 in 69 W/m2
12:44 59.5 °F 52.3 °F 29.83 in SW 9.5 mph 9 mph 77% 0.00 in 65 W/m2
12:49 59.4 °F 52.1 °F 29.83 in SW 9.9 mph 12 mph 77% 0.00 in 69 W/m2
12:54 59.4 °F 52.1 °F 29.83 in WSW 7.2 mph 13 mph 77% 0.00 in 80 W/m2
12:59 59.4 °F 52.2 °F 29.83 in WSW 7.5 mph 9 mph 77.2% 0.00 in 80 W/m2
13:04 59.4 °F 52.3 °F 29.83 in WSW 6.7 mph 9 mph 77.5% 0.00 in 111 W/m2
13:09 59.4 °F 52.2 °F 29.82 in WSW 5.7 mph 7 mph 77.2% 0.00 in 113 W/m2
13:14 59.5 °F 52.4 °F 29.82 in SW 6 mph 6 mph 77.5% 0.00 in 130 W/m2
13:19 59.5 °F 52.7 °F 29.82 in SW 5.8 mph 7 mph 78% 0.00 in 143 W/m2
13:24 59.5 °F 52.4 °F 29.82 in SW 4.9 mph 8 mph 77.2% 0.00 in 148 W/m2
13:29 59.7 °F 52.6 °F 29.82 in WSW 2.8 mph 6 mph 77.5% 0.00 in 151 W/m2
13:34 59.8 °F 52.9 °F 29.82 in WSW 2.9 mph 3 mph 78% 0.00 in 135 W/m2
13:39 59.9 °F 52.9 °F 29.81 in SW 2.2 mph 4 mph 77.5% 0.00 in 125 W/m2
13:44 59.9 °F 52.7 °F 29.81 in SW 2.5 mph 2.5 mph 77% 0.00 in 135 W/m2
13:49 60.1 °F 52.8 °F 29.81 in SW 3.1 mph 4 mph 77% 0.00 in 136 W/m2
13:54 60.2 °F 52.9 °F 29.81 in SW 2.6 mph 4 mph 77% 0.00 in 129 W/m2
13:59 60.3 °F 53 °F 29.81 in SW 3.5 mph 4 mph 77% 0.00 in 126 W/m2
14:04 60.3 °F 53 °F 29.81 in SSW 3.8 mph 5 mph 77% 0.00 in 113 W/m2
14:09 60.3 °F 53 °F 29.81 in WSW 3.5 mph 5 mph 77% 0.00 in 104 W/m2
14:14 60.1 °F 52.8 °F 29.81 in SW 4.2 mph 4 mph 77% 0.00 in 109 W/m2
14:19 60.1 °F 52.8 °F 29.81 in SSW 5.2 mph 6 mph 77% 0.00 in 111 W/m2
14:24 60.3 °F 52.9 °F 29.81 in SSW 5.4 mph 6 mph 76.8% 0.00 in 114 W/m2
14:29 60.3 °F 52.5 °F 29.81 in SSW 7.6 mph 7 mph 75.5% 0.00 in 116 W/m2
14:34 60.4 °F 52.4 °F 29.81 in SW 11.6 mph 10 mph 74.9% 0.00 in 106 W/m2
14:39 60.4 °F 52.5 °F 29.81 in SSW 9.7 mph 13 mph 74.9% 0.00 in 87 W/m2
14:44 60.4 °F 52.5 °F 29.80 in SSW 5.4 mph 13 mph 75% 0.00 in 76 W/m2
14:49 60.4 °F 52.5 °F 29.80 in SSW 5.8 mph 7 mph 75% 0.00 in 65 W/m2
14:54 60.4 °F 52.4 °F 29.80 in SSW 8.5 mph 8 mph 75% 0.00 in 59 W/m2
14:59 60.3 °F 52.3 °F 29.80 in South 7.6 mph 11 mph 75% 0.00 in 52 W/m2
15:04 60.3 °F 52.3 °F 29.81 in South 5.3 mph 11 mph 75% 0.00 in 45 W/m2
15:09 60.3 °F 52.4 °F 29.81 in South 5.3 mph 7 mph 75.2% 0.00 in 38 W/m2
15:14 60.2 °F 52.6 °F 29.80 in SSW 5.9 mph 6 mph 76.2% 0.00 in 33 W/m2
15:19 60.1 °F 52.6 °F 29.80 in SW 5.7 mph 7 mph 76.5% 0.00 in 25 W/m2
15:24 59.9 °F 52.7 °F 29.80 in SW 5.6 mph 7 mph 77% 0.00 in 22 W/m2
15:29 59.9 °F 52.7 °F 29.80 in SW 6.3 mph 7 mph 77% 0.00 in 17 W/m2
15:34 59.7 °F 52.5 °F 29.80 in SW 5.2 mph 7 mph 77% 0.00 in 13 W/m2
15:39 59.7 °F 52.7 °F 29.80 in SSW 3.1 mph 7 mph 77.5% 0.00 in 8 W/m2
15:44 59.5 °F 52.7 °F 29.80 in SW 4.4 mph 6 mph 78% 0.00 in 7 W/m2
15:49 59.5 °F 52.5 °F 29.80 in SW 4.5 mph 5 mph 77.8% 0.00 in 6 W/m2
15:54 59.4 °F 52.5 °F 29.79 in SSW 4.8 mph 6 mph 78% 0.00 in 2 W/m2
15:59 59.4 °F 52.5 °F 29.79 in SSW 4.9 mph 6 mph 78% 0.00 in 1 W/m2
16:04 59.2 °F 52.3 °F 29.80 in SW 4.1 mph 6 mph 78% 0.00 in 0 W/m2
16:09 59.2 °F 52.4 °F 29.80 in SW 5.3 mph 5 mph 78.3% 0.00 in 0 W/m2
16:14 59 °F 52.5 °F 29.80 in SW 5.4 mph 7 mph 79% 0.00 in 0 W/m2
16:19 58.8 °F 52.3 °F 29.79 in SW 5.3 mph 6 mph 79% 0.00 in 0 W/m2
16:24 58.6 °F 52.5 °F 29.80 in SW 5.9 mph 7 mph 79.8% 0.00 in 0 W/m2
16:29 58.5 °F 52.4 °F 29.79 in WSW 6.3 mph 7 mph 80.1% 0.00 in 0 W/m2
16:34 58.4 °F 52.6 °F 29.79 in WSW 6.3 mph 7 mph 81.2% 0.00 in 0 W/m2
16:39 58 °F 53 °F 29.79 in WSW 6.3 mph 7 mph 83.3% 0.00 in 0 W/m2
16:44 57.7 °F 53 °F 29.79 in WSW 5.2 mph 7 mph 84.5% 0.00 in 0 W/m2
16:49 57.4 °F 52.9 °F 29.79 in SW 5.5 mph 6 mph 85.2% 0.00 in 0 W/m2
16:54 57 °F 52.9 °F 29.79 in SW 5.2 mph 6 mph 86% 0.00 in 0 W/m2
16:59 56.8 °F 52.7 °F 29.79 in SW 4.3 mph 6 mph 86.2% 0.00 in 0 W/m2
17:04 56.6 °F 53 °F 29.79 in SW 4.8 mph 5 mph 87.9% 0.00 in 0 W/m2
17:09 56.5 °F 53 °F 29.79 in SW 4.8 mph 6 mph 88% 0.00 in 0 W/m2
17:14 56.5 °F 53 °F 29.79 in SW 3.9 mph 6 mph 88% 0.00 in 0 W/m2
17:19 56.3 °F 52.9 °F 29.79 in SW 3 mph 5 mph 88.3% 0.00 in 0 W/m2
17:24 56.2 °F 53 °F 29.79 in SW 3.2 mph 4 mph 89% 0.00 in 0 W/m2
17:29 56.1 °F 52.9 °F 29.79 in SW 3.1 mph 4 mph 89% 0.00 in 0 W/m2
17:34 55.9 °F 52.7 °F 29.79 in WSW 3.4 mph 4 mph 89% 0.00 in 0 W/m2
17:39 55.9 °F 52.7 °F 29.79 in WSW 2 mph 4 mph 89.1% 0.00 in 0 W/m2
17:44 55.8 °F 52.9 °F 29.79 in WNW 2.7 mph 2.2 mph 90% 0.00 in 0 W/m2
17:49 55.7 °F 52.8 °F 29.79 in NW 2.3 mph 3 mph 90% 0.00 in 0 W/m2
17:54 55.6 °F 52.7 °F 29.79 in NNW 2.8 mph 2.2 mph 90% 0.00 in 0 W/m2
17:59 55.4 °F 52.5 °F 29.79 in NNW 2.2 mph 3 mph 90% 0.00 in 0 W/m2
18:04 55.3 °F 52.4 °F 29.79 in North 1.6 mph 2 mph 90% 0.00 in 0 W/m2
18:09 55.2 °F 52.4 °F 29.79 in North 0.3 mph 2 mph 90.5% 0.00 in 0 W/m2
18:14 55.1 °F 52.5 °F 29.79 in North 2.1 mph 1.6 mph 91% 0.00 in 0 W/m2
18:19 55 °F 52.4 °F 29.78 in NE 3.1 mph 3.4 mph 90.8% 0.00 in 0 W/m2
18:24 55.2 °F 52.3 °F 29.79 in ESE 5.1 mph 5 mph 90% 0.00 in 0 W/m2
18:29 55.5 °F 52.4 °F 29.79 in ESE 5.9 mph 6 mph 89.3% 0.01 in 0 W/m2
18:34 55.6 °F 52.6 °F 29.79 in SE 4.7 mph 7 mph 89.4% 0.01 in 0 W/m2
18:39 55.4 °F 52.5 °F 29.78 in SSE 4.9 mph 6 mph 90% 0.01 in 0 W/m2
18:44 55.1 °F 52.5 °F 29.78 in SSE 4.7 mph 6 mph 90.8% 0.01 in 0 W/m2
18:49 54.9 °F 52.3 °F 29.78 in SSE 7.9 mph 6.7 mph 91% 0.01 in 0 W/m2
18:54 54.9 °F 52.3 °F 29.78 in SSE 7.7 mph 9 mph 91% 0.01 in 0 W/m2
18:59 54.8 °F 52.7 °F 29.78 in SSE 4.9 mph 10 mph 92.6% 0.01 in 0 W/m2
19:04 54.7 °F 52.7 °F 29.78 in South 4.6 mph 6 mph 93% 0.01 in 0 W/m2
19:09 54.6 °F 52.6 °F 29.78 in South 3.2 mph 5 mph 93.3% 0.01 in 0 W/m2
19:14 54.3 °F 52.6 °F 29.78 in SW 3.4 mph 2.9 mph 94% 0.01 in 0 W/m2
19:19 54.2 °F 52.5 °F 29.78 in SW 3.1 mph 5 mph 94% 0.01 in 0 W/m2
19:24 54.1 °F 52.6 °F 29.78 in SSW 3.2 mph 4 mph 94.8% 0.01 in 0 W/m2
19:29 54 °F 52.6 °F 29.78 in SSW 2.5 mph 3 mph 95% 0.01 in 0 W/m2
19:34 53.8 °F 52.7 °F 29.78 in SSW 2.6 mph 3 mph 95.8% 0.00 in 0 W/m2
19:39 53.6 °F 52.5 °F 29.78 in SSW 2.1 mph 3 mph 96% 0.00 in 0 W/m2
19:44 53.5 °F 52.7 °F 29.78 in SSW 3.2 mph 3 mph 97.2% 0.00 in 0 W/m2
19:49 53.3 °F 52.8 °F 29.78 in South 2.7 mph 4 mph 98% 0.00 in 0 W/m2
19:54 53.2 °F 52.7 °F 29.77 in South 3 mph 3 mph 98.3% 0.00 in 0 W/m2
19:59 53.1 °F 52.8 °F 29.77 in South 2.3 mph 3 mph 99% 0.00 in 0 W/m2
20:04 53 °F 52.7 °F 29.77 in SSW 2.3 mph 3 mph 99% 0.00 in 0 W/m2
20:09 52.9 °F 52.6 °F 29.77 in SSW 2.5 mph 2.2 mph 99% 0.00 in 0 W/m2
20:14 52.8 °F 52.5 °F 29.77 in South 2.9 mph 3 mph 99% 0.00 in 0 W/m2
20:19 52.7 °F 52.4 °F 29.77 in South 2.9 mph 3 mph 99% 0.00 in 0 W/m2
20:24 52.7 °F 52.4 °F 29.77 in SSW 2.5 mph 4 mph 99% 0.00 in 0 W/m2
20:29 52.7 °F 52.4 °F 29.77 in South 3.7 mph 3 mph 99% 0.00 in 0 W/m2
20:34 52.7 °F 52.4 °F 29.77 in SSE 4.5 mph 6 mph 99% 0.00 in 0 W/m2
20:39 52.7 °F 52.4 °F 29.77 in SSE 3.5 mph 6 mph 99% 0.00 in 0 W/m2
20:44 52.7 °F 52.4 °F 29.77 in SSE 3.3 mph 4 mph 99% 0.00 in 0 W/m2
20:49 52.7 °F 52.4 °F 29.77 in SSE 1.8 mph 4 mph 99% 0.00 in 0 W/m2
20:54 52.6 °F 52.3 °F 29.77 in West 1 mph 2 mph 99% 0.00 in 0 W/m2
20:59 52.5 °F 52.2 °F 29.77 in Calm   1 mph 99% 0.00 in 0 W/m2
21:04 52.5 °F 52.2 °F 29.77 in WSW 0.1 mph   99% 0.00 in 0 W/m2
21:09 52.3 °F 52.1 °F 29.77 in North 3.7 mph 3.8 mph 99% 0.00 in 0 W/m2
21:14 52.5 °F 52.2 °F 29.76 in East 3.9 mph 6 mph 99% 0.00 in 0 W/m2
21:19 52.5 °F 52.2 °F 29.76 in SSW 3.8 mph 5 mph 99% 0.00 in 0 W/m2
21:24 52.5 °F 52.2 °F 29.76 in SW 4 mph 5 mph 99% 0.00 in 0 W/m2
21:29 52.5 °F 52.2 °F 29.76 in SW 4.1 mph 5 mph 99% 0.00 in 0 W/m2
21:34 52.6 °F 52.3 °F 29.76 in SSW 3.8 mph 6 mph 99% 0.00 in 0 W/m2
21:39 52.8 °F 52.5 °F 29.76 in South 4.9 mph 5 mph 99% 0.00 in 0 W/m2
21:44 52.9 °F 52.6 °F 29.76 in South 6.1 mph 7 mph 99% 0.00 in 0 W/m2
21:49 53.1 °F 52.9 °F 29.76 in South 6.2 mph 8 mph 99% 0.00 in 0 W/m2
21:54 53.2 °F 53 °F 29.75 in SSE 4.1 mph 8 mph 99% 0.00 in 0 W/m2
21:59 53.2 °F 53 °F 29.75 in SSE 4.1 mph 5 mph 99% 0.00 in 0 W/m2
22:04 53.2 °F 53 °F 29.75 in South 4.3 mph 6 mph 99% 0.00 in 0 W/m2
22:09 53.2 °F 53 °F 29.75 in South 2.5 mph 6 mph 99% 0.00 in 0 W/m2
22:14 53.1 °F 52.8 °F 29.75 in WSW 2.5 mph 3 mph 99% 0.00 in 0 W/m2
22:19 52.9 °F 52.6 °F 29.75 in WNW 3.4 mph 3 mph 99% 0.00 in 0 W/m2
22:24 52.5 °F 52.2 °F 29.75 in WSW 4.7 mph 4.5 mph 99% 0.00 in 0 W/m2
22:29 52.5 °F 52.2 °F 29.75 in South 4.9 mph 6 mph 99% 0.00 in 0 W/m2
22:34 52.6 °F 52.3 °F 29.74 in South 6.5 mph 8 mph 99% 0.00 in 0 W/m2
22:39 52.8 °F 52.5 °F 29.74 in South 6 mph 8 mph 99% 0.00 in 0 W/m2
22:44 52.9 °F 52.6 °F 29.74 in South 6.4 mph 7 mph 99% 0.00 in 0 W/m2
22:49 52.9 °F 52.6 °F 29.74 in South 7.3 mph 8 mph 99% 0.00 in 0 W/m2
22:54 53 °F 52.7 °F 29.74 in South 8.3 mph 8 mph 99% 0.00 in 0 W/m2
22:59 53.2 °F 53 °F 29.74 in South 6.1 mph 10 mph 99% 0.00 in 0 W/m2
23:04 53.4 °F 53.1 °F 29.74 in SSE 6.4 mph 8 mph 99% 0.00 in 0 W/m2
23:09 53.5 °F 53 °F 29.74 in SSE 6.3 mph 9 mph 98.5% 0.00 in 0 W/m2
23:14 53.5 °F 53 °F 29.74 in South 4.1 mph 7 mph 98.1% 0.00 in 0 W/m2
23:19 53.4 °F 53.1 °F 29.74 in SSW 2.9 mph 5 mph 99% 0.00 in 0 W/m2
23:24 53.3 °F 53 °F 29.74 in SW 3.2 mph 4 mph 99% 0.00 in 0 W/m2
23:29 53.2 °F 53 °F 29.74 in SW 3.7 mph 3 mph 99% 0.00 in 0 W/m2
23:34 53.2 °F 53 °F 29.73 in SSW 5.4 mph 7 mph 99% 0.00 in 0 W/m2
23:39 53.3 °F 53.1 °F 29.74 in SSE 5 mph 7 mph 99% 0.00 in 0 W/m2
23:44 53.5 °F 53 °F 29.74 in SSE 6.2 mph 7 mph 98.1% 0.00 in 0 W/m2
23:49 53.8 °F 53.2 °F 29.73 in South 4.9 mph 9 mph 98% 0.00 in 0 W/m2
23:54 53.8 °F 53.2 °F 29.73 in South 6.9 mph 7 mph 98% 0.00 in 0 W/m2
23:59 53.7 °F 53.1 °F 29.73 in South 4.3 mph 10 mph 98% 0.00 in 0 W/m2
Knjazevac, Serbia
Compliments of Weather Underground - 4 mb